Darwin, CA

12:04 AM PDT on September 02, 2014 (GMT -0700)
China Lake NAWS | Change Station
CLOSE
Current Station
Airport
Location: China Lake,
Elevation: 2283 ft
Nearby Weather Stations

Elev 2283 ft 35.69 °N, 117.69 °W | Updated 8 minutes ago

Clear
Clear
81 °F
Feels Like 81 °F
N
9
Wind Variable Wind from South

Today
High -- | Low -- °F
--% Chance of Precip.
Yesterday
High -- | Low -- °F
Precip. -- in
6:23 AM 7:16 PM
Waxing Crescent, 48% visible
Pressure 29.74 in
Visibility 10.0 miles
Clouds Clear
Dew Point 43 °F
Humidity 26%
Rainfall 0.00 in
Snow Depth Not available.
UV 0 out of 12
Pollen 9.10 out of 12
Air Quality Not available.
Flu Activity Not available.
METAR KNID 020656Z AUTO 19008KT 10SM CLR 27/06 A2981 RMK AO2 SLP069 T02720061

More Conditions Fewer Conditions

Pressure 29.74 in
Visibility 10.0 miles
Clouds Clear
Dew Point 43 °F
Humidity 26%
Rainfall 0.00 in
Snow Depth Not available.
UV 0 out of 12
Pollen 9.10 out of 12
Air Quality Not available.
Flu Activity Not available.
METAR KNID 020656Z AUTO 19008KT 10SM CLR 27/06 A2981 RMK AO2 SLP069 T02720061

More Conditions Fewer Conditions

10-Day Weather Forecast

Almanac

Astronomy

Sep. 02, 2014 Rise Set
Actual Time 6:23 AM PDT 7:16 PM PDT
Civil Twilight 5:57 AM PDT 7:42 PM PDT
Nautical Twilight 5:26 AM PDT 8:13 PM PDT
Astronomical Twilight 4:54 AM PDT 8:44 PM PDT
Moon 1:58 PM PDT No Moon Set
Length of Visible Light 13h 44m
Length of Day
12h 52m
Tomorrow will be 2m 11s shorter.
Waxing Crescent, 48% of the Moon is Illuminated
Today
Waxing Crescent
Sep 2
First Quarter
Sep 8
Full
Sep 15
Last Quarter
Sep 24
New

Community

WunderPhotos

Upload Photos

1,749,589 photos uploaded!

WunderBlogs® & News

Nearby

Snow Depth

Station Depth Elevation
Leavitt Lake 0 in 9400 ft
Leavitt Meadows 0 in 7200 ft
Summit Meadow 0 in 9122 ft
Ebbetts Pass 0 in 8700 ft
Monitor Pass 0 in 8350 ft

Earthquake Activity

City Distance Mag. Time & Date
Goldfield, Nevada 125 miles 2.7 7:38 PM PDT
2014-08-30
Malibu, California 157 miles 2.5 8:11 AM PDT
2014-08-30
Minimum magnitude displayed is 2.5.

Coastal Water Temperatures

Place Temperature
No Stations Reporting

Nearby Weather Stations